createdAt,value
2018-01-25T05:06:26.013Z,2.03
2018-01-25T05:08:52.875Z,3.50
2018-01-25T05:11:19.635Z,1.70
2018-01-25T05:13:46.430Z,1.80
2018-01-25T05:16:13.233Z,1.80
2018-01-25T05:18:40.050Z,1.07
2018-01-25T05:21:06.864Z,1.40
2018-01-25T05:23:33.642Z,1.90
2018-01-25T05:26:00.382Z,2.10
2018-01-25T05:28:27.204Z,1.50
2018-01-25T05:30:53.995Z,1.37
2018-01-25T05:33:20.789Z,1.87
2018-01-25T05:35:47.616Z,2.13
2018-01-25T05:38:14.365Z,2.33
2018-01-25T05:40:41.129Z,1.90
2018-01-25T05:43:07.890Z,2.00
2018-01-25T05:45:34.642Z,1.40
2018-01-25T05:48:01.397Z,1.33
2018-01-25T05:50:28.229Z,2.20
2018-01-25T05:52:55.058Z,1.77
2018-01-25T05:55:21.793Z,1.90
2018-01-25T05:57:48.621Z,2.87
2018-01-25T06:00:15.370Z,2.60
2018-01-25T06:02:42.153Z,2.80
2018-01-25T06:05:08.954Z,2.37
2018-01-25T06:07:35.737Z,2.10
2018-01-25T06:10:02.537Z,3.00
2018-01-25T06:12:29.378Z,2.20
2018-01-25T06:14:56.167Z,2.93
2018-01-25T06:17:23.012Z,2.90
2018-01-25T06:19:49.824Z,2.30
2018-01-25T06:22:16.634Z,1.20
2018-01-25T06:24:43.406Z,2.70
2018-01-25T06:27:10.236Z,2.40
2018-01-25T06:29:36.998Z,2.90
2018-01-25T06:32:03.726Z,2.73
2018-01-25T06:34:30.541Z,3.67
2018-01-25T06:36:57.300Z,2.43
2018-01-25T06:39:24.102Z,2.20
2018-01-25T06:41:50.902Z,3.10
2018-01-25T06:44:17.725Z,3.30
2018-01-25T06:46:44.509Z,3.73
2018-01-25T06:49:11.358Z,3.13
2018-01-25T06:51:38.102Z,3.33
2018-01-25T06:54:04.867Z,3.10
2018-01-25T06:56:31.707Z,2.33
2018-01-25T06:58:58.489Z,3.57
2018-01-25T07:01:25.225Z,4.23
2018-01-25T07:03:52.010Z,4.43
2018-01-25T07:06:18.762Z,3.30
2018-01-25T07:08:45.524Z,3.50
2018-01-25T07:11:12.526Z,3.60
2018-01-25T07:13:39.272Z,1.80
2018-01-25T07:16:06.121Z,1.63
2018-01-25T07:18:32.914Z,3.07
2018-01-25T07:20:59.666Z,3.10
2018-01-25T07:23:26.445Z,3.53
2018-01-25T07:25:53.549Z,3.30
2018-01-25T07:28:20.294Z,3.43
2018-01-25T07:30:47.058Z,3.77
2018-01-25T07:33:13.845Z,3.10
2018-01-25T07:35:40.604Z,4.07
2018-01-25T07:38:07.369Z,4.33
2018-01-25T07:40:34.170Z,3.17
2018-01-25T07:43:00.936Z,3.87
2018-01-25T07:45:27.690Z,2.80
2018-01-25T07:47:54.503Z,4.60
2018-01-25T07:50:21.278Z,4.03
2018-01-25T07:52:48.044Z,4.23
2018-01-25T07:55:14.863Z,4.13
2018-01-25T07:57:47.414Z,4.20
2018-01-25T08:00:14.197Z,3.87
2018-01-25T08:02:40.983Z,3.30
2018-01-25T08:05:07.744Z,3.00
2018-01-25T08:07:34.569Z,3.53
2018-01-25T08:10:01.365Z,3.20
2018-01-25T08:12:28.134Z,3.83
2018-01-25T08:14:54.929Z,3.20
2018-01-25T08:17:21.686Z,3.60
2018-01-25T08:19:48.466Z,3.87
2018-01-25T08:22:15.388Z,3.33
2018-01-25T08:24:42.188Z,4.27
2018-01-25T08:27:08.937Z,2.00
2018-01-25T08:29:35.738Z,3.70
2018-01-25T08:32:02.548Z,5.43
2018-01-25T08:34:29.757Z,1.23
2018-01-25T08:36:56.557Z,4.33
2018-01-25T08:39:23.340Z,3.13
2018-01-25T08:41:50.126Z,3.10
2018-01-25T08:44:16.923Z,3.70
2018-01-25T08:46:43.704Z,3.27
2018-01-25T08:49:10.477Z,3.33
2018-01-25T08:51:37.291Z,3.93
2018-01-25T08:54:04.116Z,3.40
2018-01-25T08:56:30.886Z,2.70
2018-01-25T08:58:57.760Z,3.63
2018-01-25T09:01:24.554Z,3.00
2018-01-25T09:03:51.385Z,3.57
2018-01-25T09:06:18.160Z,4.33
2018-01-25T09:08:44.923Z,3.53
2018-01-25T09:11:11.723Z,3.67
2018-01-25T09:13:38.601Z,3.90
2018-01-25T09:16:05.359Z,3.30
2018-01-25T09:18:32.137Z,4.07
2018-01-25T09:20:58.969Z,4.63
2018-01-25T09:23:25.724Z,4.33
2018-01-25T09:25:52.483Z,4.77
2018-01-25T09:28:19.288Z,4.60
2018-01-25T09:30:46.069Z,4.23
2018-01-25T09:33:12.813Z,3.03
2018-01-25T09:35:39.601Z,3.87
2018-01-25T09:38:06.359Z,3.73
2018-01-25T09:40:33.118Z,4.70
2018-01-25T09:42:59.931Z,3.83
2018-01-25T09:45:26.698Z,3.53
2018-01-25T09:47:53.516Z,6.10
2018-01-25T09:50:20.369Z,3.70
2018-01-25T09:52:47.121Z,4.43
2018-01-25T09:55:13.898Z,4.10
2018-01-25T09:57:40.736Z,4.07
2018-01-25T10:00:07.550Z,4.90
2018-01-25T10:02:34.317Z,4.73
2018-01-25T10:05:01.105Z,4.07
2018-01-25T10:07:27.885Z,4.63
2018-01-25T10:09:54.710Z,3.60
2018-01-25T10:12:21.586Z,4.07
2018-01-25T10:14:48.337Z,3.70
2018-01-25T10:17:15.085Z,4.43
2018-01-25T10:19:41.898Z,4.07
2018-01-25T10:22:08.645Z,1.57
2018-01-25T10:24:36.278Z,4.37
2018-01-25T10:27:03.101Z,5.10
2018-01-25T10:29:29.911Z,5.57
2018-01-25T10:31:56.698Z,5.97
2018-01-25T10:34:23.596Z,6.23
2018-01-25T10:36:50.344Z,1.93
2018-01-25T10:39:17.130Z,5.10
2018-01-25T10:41:43.923Z,4.90
2018-01-25T10:44:10.733Z,5.00
2018-01-25T10:46:37.489Z,4.37
2018-01-25T10:49:04.274Z,6.53
2018-01-25T10:51:31.033Z,4.30
2018-01-25T10:53:57.796Z,5.50
2018-01-25T10:56:24.612Z,5.70
2018-01-25T10:58:51.389Z,5.53
2018-01-25T11:01:24.088Z,5.90
2018-01-25T11:03:50.875Z,5.40
2018-01-25T11:06:17.677Z,4.63
2018-01-25T11:08:44.470Z,5.30
2018-01-25T11:11:11.239Z,5.07
2018-01-25T11:13:38.086Z,5.40
2018-01-25T11:16:04.905Z,6.40
2018-01-25T11:18:31.670Z,5.03
2018-01-25T11:20:58.465Z,2.77
2018-01-25T11:23:25.274Z,6.57
2018-01-25T11:25:52.054Z,5.50
2018-01-25T11:28:18.839Z,5.10
2018-01-25T11:30:45.691Z,4.47
2018-01-25T11:33:12.914Z,5.67
2018-01-25T11:35:39.800Z,6.07
2018-01-25T11:38:06.643Z,5.87
2018-01-25T11:40:33.506Z,5.50
2018-01-25T11:43:00.276Z,6.40
2018-01-25T11:45:27.102Z,6.00
2018-01-25T11:47:53.884Z,6.60
2018-01-25T11:50:20.692Z,6.17
2018-01-25T11:52:47.492Z,6.57
2018-01-25T11:55:14.251Z,5.20
2018-01-25T11:57:41.065Z,6.23
2018-01-25T12:00:07.877Z,4.57
2018-01-25T12:02:34.664Z,6.00
2018-01-25T12:05:01.468Z,5.40
2018-01-25T12:07:28.313Z,6.03
2018-01-25T12:09:55.095Z,6.73
2018-01-25T12:12:21.877Z,6.50
2018-01-25T12:14:48.667Z,6.40
2018-01-25T12:17:15.471Z,5.77
2018-01-25T12:19:42.300Z,6.70
2018-01-25T12:22:09.153Z,3.73
2018-01-25T12:24:35.950Z,6.13
2018-01-25T12:27:02.742Z,6.20
2018-01-25T12:29:29.577Z,5.53
2018-01-25T12:31:56.431Z,3.93
2018-01-25T12:34:23.230Z,4.87
2018-01-25T12:36:50.032Z,6.13
2018-01-25T12:39:16.823Z,6.67
2018-01-25T12:41:43.620Z,6.20
2018-01-25T12:44:10.471Z,6.20
2018-01-25T12:46:37.259Z,8.53
2018-01-25T12:49:04.025Z,5.37
2018-01-25T12:51:31.039Z,4.73
2018-01-25T12:53:57.837Z,4.03
2018-01-25T12:56:24.654Z,7.83
2018-01-25T12:58:51.457Z,6.30
2018-01-25T13:01:18.216Z,6.20
2018-01-25T13:03:45.021Z,6.93
2018-01-25T13:06:11.810Z,6.27
2018-01-25T13:08:38.577Z,6.10
2018-01-25T13:11:05.357Z,6.20
2018-01-25T13:13:32.189Z,6.50
2018-01-25T13:15:59.436Z,6.63
2018-01-25T13:18:26.249Z,7.00
2018-01-25T13:20:53.069Z,6.20
2018-01-25T13:23:19.826Z,4.53
2018-01-25T13:25:46.606Z,6.27
2018-01-25T13:28:13.506Z,7.00
2018-01-25T13:30:40.315Z,6.30
2018-01-25T13:33:12.702Z,6.00
2018-01-25T13:35:39.490Z,8.50
2018-01-25T13:38:06.270Z,5.27
2018-01-25T13:40:33.037Z,7.40
2018-01-25T13:42:59.867Z,6.07
2018-01-25T13:45:26.677Z,7.10
2018-01-25T13:47:53.513Z,6.67
2018-01-25T13:50:20.323Z,6.03
2018-01-25T13:52:47.079Z,6.30
2018-01-25T13:55:13.845Z,5.43
2018-01-25T13:57:40.657Z,5.13
2018-01-25T14:00:07.486Z,5.97
2018-01-25T14:02:34.252Z,6.53
2018-01-25T14:05:01.053Z,6.57
2018-01-25T14:07:27.835Z,6.80
2018-01-25T14:09:54.664Z,7.40
2018-01-25T14:12:21.449Z,7.07
2018-01-25T14:14:48.309Z,6.47
2018-01-25T14:17:15.081Z,7.83
2018-01-25T14:19:41.886Z,7.10
2018-01-25T14:22:08.655Z,5.17
2018-01-25T14:24:35.409Z,6.90
2018-01-25T14:27:02.250Z,6.93
2018-01-25T14:29:29.041Z,6.63
2018-01-25T14:31:55.823Z,7.30
2018-01-25T14:34:22.644Z,7.73
2018-01-25T14:36:49.455Z,7.20
2018-01-25T14:39:16.244Z,8.00
2018-01-25T14:41:43.051Z,6.10
2018-01-25T14:44:09.819Z,5.93
2018-01-25T14:46:36.626Z,7.67
2018-01-25T14:49:03.448Z,6.70
2018-01-25T14:51:30.224Z,7.80
2018-01-25T14:53:57.010Z,6.50
2018-01-25T14:56:23.856Z,6.20
2018-01-25T14:58:50.652Z,6.03
2018-01-25T15:01:17.448Z,7.27
2018-01-25T15:03:44.281Z,7.57
2018-01-25T15:06:11.087Z,6.77
2018-01-25T15:08:38.233Z,6.73
2018-01-25T15:11:05.031Z,5.63
2018-01-25T15:13:31.816Z,6.10
2018-01-25T15:15:58.602Z,7.77
2018-01-25T15:18:25.407Z,5.67
2018-01-25T15:20:52.215Z,5.80
2018-01-25T15:23:18.986Z,6.70
2018-01-25T15:25:51.404Z,8.10
2018-01-25T15:28:18.219Z,6.00
2018-01-25T15:30:44.984Z,6.50
2018-01-25T15:33:11.778Z,6.07
2018-01-25T15:35:38.633Z,5.90
2018-01-25T15:38:05.398Z,6.37
2018-01-25T15:40:32.221Z,5.20
2018-01-25T15:42:58.975Z,5.00
2018-01-25T15:45:25.728Z,6.57
2018-01-25T15:47:52.544Z,7.43
2018-01-25T15:50:19.360Z,6.83
2018-01-25T15:52:46.125Z,7.30
2018-01-25T15:55:12.921Z,5.87
2018-01-25T15:57:39.688Z,6.50
2018-01-25T16:00:06.454Z,6.30
2018-01-25T16:02:33.239Z,6.37
2018-01-25T16:04:59.987Z,6.63
2018-01-25T16:07:26.746Z,7.00
2018-01-25T16:09:53.558Z,5.40
2018-01-25T16:12:20.361Z,7.00
2018-01-25T16:14:47.127Z,6.40
2018-01-25T16:17:13.975Z,6.10
2018-01-25T16:19:40.736Z,6.30
2018-01-25T16:22:07.533Z,7.40
2018-01-25T16:24:34.345Z,7.63
2018-01-25T16:27:01.107Z,6.73
2018-01-25T16:29:27.925Z,6.30
2018-01-25T16:31:54.732Z,7.77
2018-01-25T16:34:21.557Z,8.50
2018-01-25T16:36:48.333Z,6.17
2018-01-25T16:39:15.182Z,6.63
2018-01-25T16:41:41.994Z,7.20
2018-01-25T16:44:08.810Z,8.50
2018-01-25T16:46:35.594Z,7.47
2018-01-25T16:49:02.360Z,6.70
2018-01-25T16:51:29.145Z,7.80
2018-01-25T16:53:55.989Z,8.07
2018-01-25T16:56:22.748Z,6.60
2018-01-25T16:58:49.573Z,7.73
2018-01-25T17:01:16.418Z,7.53
2018-01-25T17:03:43.185Z,7.73
2018-01-25T17:06:09.979Z,7.80
2018-01-25T17:08:36.828Z,7.40
2018-01-25T17:11:03.618Z,7.70
2018-01-25T17:13:30.474Z,9.20
2018-01-25T17:15:57.340Z,7.93
2018-01-25T17:18:24.119Z,7.50
2018-01-25T17:20:50.888Z,7.20
2018-01-25T17:23:17.731Z,7.63
2018-01-25T17:25:44.567Z,8.00
2018-01-25T17:28:11.420Z,7.97
2018-01-25T17:30:38.243Z,7.90
2018-01-25T17:33:05.013Z,9.13
2018-01-25T17:35:31.804Z,9.00
2018-01-25T17:37:58.611Z,9.30
2018-01-25T17:40:25.384Z,8.30
2018-01-25T17:42:52.129Z,8.77
2018-01-25T17:45:18.941Z,8.87
2018-01-25T17:47:45.748Z,9.57
2018-01-25T17:50:12.528Z,7.37
2018-01-25T17:52:39.328Z,9.40
2018-01-25T17:55:06.142Z,8.73
2018-01-25T17:57:32.951Z,9.23
2018-01-25T17:59:59.773Z,8.67
2018-01-25T18:02:26.522Z,9.03
2018-01-25T18:04:53.270Z,8.33
2018-01-25T18:07:20.101Z,10.37
2018-01-25T18:09:46.890Z,7.90
2018-01-25T18:12:13.662Z,8.47
2018-01-25T18:14:40.455Z,9.80
2018-01-25T18:17:07.240Z,8.03
2018-01-25T18:19:34.007Z,9.77
2018-01-25T18:22:00.797Z,7.80
2018-01-25T18:24:27.598Z,8.37
2018-01-25T18:26:54.387Z,7.67
2018-01-25T18:29:21.179Z,8.30
2018-01-25T18:31:47.924Z,8.33
2018-01-25T18:34:14.741Z,8.03
2018-01-25T18:36:41.522Z,10.00
2018-01-25T18:39:08.406Z,7.40
2018-01-25T18:41:35.189Z,8.37
2018-01-25T18:44:02.485Z,8.60
2018-01-25T18:46:29.756Z,8.97
2018-01-25T18:48:56.991Z,10.80
2018-01-25T18:51:23.866Z,8.53
2018-01-25T18:53:50.632Z,9.70
2018-01-25T18:56:19.486Z,11.27
2018-01-25T18:58:46.426Z,9.00
2018-01-25T19:01:13.511Z,9.03
2018-01-25T19:03:40.459Z,10.43
2018-01-25T19:06:08.117Z,10.80
2018-01-25T19:08:36.298Z,10.70
2018-01-25T19:11:04.487Z,10.63
2018-01-25T19:13:42.423Z,11.30
2018-01-25T19:16:09.682Z,13.63
2018-01-25T19:18:36.892Z,13.73
2018-01-25T19:21:06.031Z,12.80
2018-01-25T19:23:43.208Z,12.33
2018-01-25T19:26:10.109Z,13.27
2018-01-25T19:28:40.322Z,11.77
2018-01-25T19:31:08.395Z,11.30
2018-01-25T19:33:36.633Z,12.50
2018-01-25T19:36:03.578Z,12.50
2018-01-25T19:38:30.442Z,12.10
2018-01-25T19:40:57.247Z,13.77
2018-01-25T19:43:24.041Z,14.77
2018-01-25T19:45:50.870Z,13.97
2018-01-25T19:48:17.719Z,13.13
2018-01-25T19:50:44.521Z,13.47
2018-01-25T19:53:11.295Z,12.87
2018-01-25T19:55:38.141Z,14.90
2018-01-25T19:58:04.914Z,13.02
2018-01-25T20:00:31.730Z,16.55
2018-01-25T20:02:58.559Z,14.23
2018-01-25T20:05:25.405Z,15.17
2018-01-25T20:07:52.234Z,13.00
2018-01-25T20:10:19.062Z,14.23
2018-01-25T20:12:45.897Z,13.67
2018-01-25T20:15:12.678Z,13.43
2018-01-25T20:17:39.489Z,12.90
2018-01-25T20:20:06.290Z,15.73
2018-01-25T20:22:33.155Z,15.80
2018-01-25T20:24:59.995Z,15.23
2018-01-25T20:27:26.785Z,14.47
2018-01-25T20:29:53.593Z,15.90
2018-01-25T20:32:20.449Z,13.63
2018-01-25T20:34:47.182Z,14.67
2018-01-25T20:37:14.044Z,14.50
2018-01-25T20:39:40.914Z,14.40
2018-01-25T20:42:07.895Z,16.73
2018-01-25T20:44:34.673Z,15.50
2018-01-25T20:47:01.467Z,14.80
2018-01-25T20:49:28.244Z,17.03
2018-01-25T20:51:55.029Z,16.23
2018-01-25T20:54:21.826Z,16.07
2018-01-25T20:56:48.597Z,16.83
2018-01-25T20:59:15.395Z,16.80
2018-01-25T21:01:42.205Z,15.20
2018-01-25T21:04:08.985Z,16.90
2018-01-25T21:06:35.770Z,15.83
2018-01-25T21:09:02.568Z,17.20
2018-01-25T21:11:29.370Z,15.37
2018-01-25T21:13:56.125Z,16.87
2018-01-25T21:16:22.948Z,18.00
2018-01-25T21:18:49.710Z,17.83
2018-01-25T21:21:16.548Z,18.17
2018-01-25T21:23:43.372Z,15.97
2018-01-25T21:26:10.188Z,16.10
2018-01-25T21:28:37.031Z,18.63
2018-01-25T21:31:03.864Z,17.80
2018-01-25T21:33:30.670Z,17.37
2018-01-25T21:35:57.449Z,19.03
2018-01-25T21:38:24.265Z,16.30
2018-01-25T21:40:51.105Z,15.77
2018-01-25T21:43:17.929Z,22.75
2018-01-25T21:45:44.801Z,20.53
2018-01-25T21:48:11.929Z,18.13
2018-01-25T21:50:38.708Z,17.90
2018-01-25T21:53:05.553Z,18.17
2018-01-25T21:55:32.376Z,17.07
2018-01-25T21:57:59.164Z,17.70
2018-01-25T22:00:26.026Z,19.33
2018-01-25T22:02:52.810Z,20.53
2018-01-25T22:05:19.563Z,21.00
2018-01-25T22:07:46.379Z,18.37
2018-01-25T22:10:13.206Z,18.50
2018-01-25T22:12:39.964Z,19.10
2018-01-25T22:15:06.864Z,19.83
2018-01-25T22:17:33.630Z,18.27
2018-01-25T22:20:00.405Z,19.57
2018-01-25T22:22:27.328Z,19.70
2018-01-25T22:24:54.078Z,20.53
2018-01-25T22:27:20.875Z,19.27
2018-01-25T22:29:47.659Z,18.30
2018-01-25T22:32:14.434Z,19.73
2018-01-25T22:34:41.207Z,18.93
2018-01-25T22:37:08.110Z,21.57
2018-01-25T22:39:34.912Z,18.90
2018-01-25T22:42:01.691Z,20.07
2018-01-25T22:44:28.491Z,21.70
2018-01-25T22:46:55.264Z,19.30
2018-01-25T22:49:22.056Z,19.00
2018-01-25T22:51:48.927Z,20.60
2018-01-25T22:54:15.693Z,20.97
2018-01-25T22:56:42.505Z,21.10
2018-01-25T22:59:09.314Z,22.43
2018-01-25T23:01:36.981Z,20.23
2018-01-25T23:04:04.842Z,21.30
2018-01-25T23:06:31.640Z,19.20
2018-01-25T23:08:58.420Z,20.90
2018-01-25T23:11:25.209Z,22.23
2018-01-25T23:13:52.049Z,22.30
2018-01-25T23:16:18.853Z,22.17
2018-01-25T23:18:45.826Z,18.37
2018-01-25T23:21:12.690Z,20.80
2018-01-25T23:23:39.575Z,20.80
2018-01-25T23:26:06.467Z,19.53
2018-01-25T23:28:34.068Z,20.57
2018-01-25T23:31:00.944Z,19.77
2018-01-25T23:33:27.898Z,22.00
